createdAt,value
2022-12-08T00:00:20.639Z,8.29
2022-12-08T00:02:51.165Z,8.29
2022-12-08T00:05:21.126Z,8.28
2022-12-08T00:07:50.979Z,8.27
2022-12-08T00:10:18.854Z,8.25
2022-12-08T00:12:37.687Z,8.23
2022-12-08T00:14:53.879Z,8.22
2022-12-08T00:17:10.819Z,8.21
2022-12-08T00:19:24.104Z,8.19
2022-12-08T00:21:37.358Z,8.16
2022-12-08T00:23:50.725Z,8.15
2022-12-08T00:26:08.643Z,8.14
2022-12-08T00:28:22.098Z,8.14
2022-12-08T00:30:35.552Z,8.13
2022-12-08T00:32:49.064Z,8.09
2022-12-08T00:35:02.739Z,8.04
2022-12-08T00:37:16.606Z,8.01
2022-12-08T00:39:30.006Z,7.99
2022-12-08T00:41:59.878Z,7.96
2022-12-08T00:44:14.203Z,7.94
2022-12-08T00:46:27.451Z,7.94
2022-12-08T00:48:40.664Z,7.93
2022-12-08T00:50:53.860Z,7.93
2022-12-08T00:53:07.141Z,7.93
2022-12-08T00:55:20.495Z,7.92
2022-12-08T00:57:33.762Z,7.93
2022-12-08T00:59:47.108Z,7.93
2022-12-08T01:02:00.288Z,7.94
2022-12-08T01:04:14.662Z,7.95
2022-12-08T01:06:27.794Z,7.96
2022-12-08T01:08:42.616Z,7.97
2022-12-08T01:10:55.872Z,7.97
2022-12-08T01:13:09.055Z,7.98
2022-12-08T01:15:22.326Z,7.98
2022-12-08T01:17:35.655Z,7.98
2022-12-08T01:19:49.233Z,7.98
2022-12-08T01:22:02.732Z,7.98
2022-12-08T01:24:18.522Z,8.00
2022-12-08T01:26:31.852Z,8.01
2022-12-08T01:28:45.765Z,8.01
2022-12-08T01:30:59.273Z,8.01
2022-12-08T01:33:12.675Z,8.00
2022-12-08T01:35:26.085Z,8.02
2022-12-08T01:37:39.447Z,8.03
2022-12-08T01:39:52.663Z,8.04
2022-12-08T01:42:05.960Z,8.04
2022-12-08T01:44:51.627Z,8.04
2022-12-08T01:47:05.329Z,8.04
2022-12-08T01:49:21.524Z,8.05
2022-12-08T01:51:37.133Z,8.07
2022-12-08T01:53:51.212Z,8.08
2022-12-08T01:56:10.561Z,8.08
2022-12-08T01:58:30.789Z,8.08
2022-12-08T02:00:44.305Z,8.08
2022-12-08T02:03:02.099Z,8.08
2022-12-08T02:05:16.228Z,8.09
2022-12-08T02:07:29.760Z,8.11
2022-12-08T02:09:43.678Z,8.12
2022-12-08T02:12:00.418Z,8.13
2022-12-08T02:14:16.634Z,8.14
2022-12-08T02:16:40.036Z,8.15
2022-12-08T02:19:30.324Z,8.14
2022-12-08T02:21:48.072Z,8.14
2022-12-08T02:24:17.898Z,8.14
2022-12-08T02:27:06.734Z,8.14
2022-12-08T02:29:46.381Z,8.14
2022-12-08T02:32:11.970Z,8.13
2022-12-08T02:34:33.153Z,8.12
2022-12-08T02:37:08.027Z,8.10
2022-12-08T02:39:32.029Z,8.09
2022-12-08T02:41:51.406Z,8.09
2022-12-08T02:44:12.084Z,8.09
2022-12-08T02:46:30.923Z,8.10
2022-12-08T02:48:45.370Z,8.10
2022-12-08T02:50:59.012Z,8.11
2022-12-08T02:55:28.877Z,8.13
2022-12-08T02:57:56.661Z,8.14
2022-12-08T03:00:17.651Z,8.15
2022-12-08T03:02:45.665Z,8.15
2022-12-08T03:05:07.559Z,8.15
2022-12-08T03:07:29.257Z,8.15
2022-12-08T03:09:49.882Z,8.16
2022-12-08T03:12:10.047Z,8.16
2022-12-08T03:14:25.311Z,8.18
2022-12-08T03:16:41.822Z,8.19
2022-12-08T03:18:59.948Z,8.20
2022-12-08T03:21:14.315Z,8.22
2022-12-08T03:23:28.767Z,8.22
2022-12-08T03:25:46.915Z,8.23
2022-12-08T03:28:00.266Z,8.24
2022-12-08T03:30:15.426Z,8.25
2022-12-08T03:32:33.053Z,8.25
2022-12-08T03:34:50.587Z,8.26
2022-12-08T03:37:06.535Z,8.25
2022-12-08T03:39:19.951Z,8.26
2022-12-08T03:41:33.634Z,8.26
2022-12-08T03:43:47.099Z,8.25
2022-12-08T03:46:00.520Z,8.25
2022-12-08T03:48:14.232Z,8.25
2022-12-08T03:50:27.664Z,8.26
2022-12-08T03:52:41.022Z,8.27
2022-12-08T03:54:54.389Z,8.28
2022-12-08T03:57:07.870Z,8.30
2022-12-08T03:59:21.191Z,8.31
2022-12-08T04:01:34.885Z,8.33
2022-12-08T04:03:48.279Z,8.36
2022-12-08T04:06:01.710Z,8.38
2022-12-08T04:08:15.040Z,8.41
2022-12-08T04:10:28.437Z,8.42
2022-12-08T04:12:41.931Z,8.43
2022-12-08T04:14:55.355Z,8.43
2022-12-08T04:17:08.742Z,8.45
2022-12-08T04:19:22.251Z,8.44
2022-12-08T04:21:35.696Z,8.44
2022-12-08T04:23:49.539Z,8.43
2022-12-08T04:26:02.982Z,8.42
2022-12-08T04:28:16.374Z,8.42
2022-12-08T04:30:29.746Z,8.40
2022-12-08T04:32:47.212Z,8.40
2022-12-08T04:35:00.918Z,8.40
2022-12-08T04:37:14.117Z,8.40
2022-12-08T04:39:27.684Z,8.40
2022-12-08T04:41:43.808Z,8.41
2022-12-08T04:43:57.008Z,8.42
2022-12-08T04:46:12.724Z,8.44
2022-12-08T04:48:26.305Z,8.46
2022-12-08T04:50:39.597Z,8.48
2022-12-08T04:52:52.774Z,8.49
2022-12-08T04:55:10.423Z,8.50
2022-12-08T04:57:23.770Z,8.50
2022-12-08T04:59:37.067Z,8.51
2022-12-08T05:01:50.426Z,8.51
2022-12-08T05:04:03.844Z,8.52
2022-12-08T05:06:18.788Z,8.52
2022-12-08T05:08:32.507Z,8.52
2022-12-08T05:10:46.010Z,8.52
2022-12-08T05:13:01.133Z,8.52
2022-12-08T05:15:15.347Z,8.52
2022-12-08T05:17:28.776Z,8.53
2022-12-08T05:19:42.439Z,8.53
2022-12-08T05:21:55.777Z,8.54
2022-12-08T05:24:09.753Z,8.55
2022-12-08T05:26:25.450Z,8.55
2022-12-08T05:28:43.057Z,8.55
2022-12-08T05:30:57.008Z,8.56
2022-12-08T05:33:10.302Z,8.57
2022-12-08T05:35:23.757Z,8.59
2022-12-08T05:37:37.119Z,8.60
2022-12-08T05:39:50.317Z,8.61
2022-12-08T05:42:03.552Z,8.62
2022-12-08T05:44:17.221Z,8.63
2022-12-08T05:46:30.696Z,8.64
2022-12-08T05:48:43.999Z,8.64
2022-12-08T05:50:57.553Z,8.64
2022-12-08T05:53:10.813Z,8.66
2022-12-08T05:55:24.276Z,8.66
2022-12-08T05:57:37.590Z,8.67
2022-12-08T05:59:50.847Z,8.69
2022-12-08T06:02:04.369Z,8.70
2022-12-08T06:04:17.581Z,8.72
2022-12-08T06:06:31.040Z,8.73
2022-12-08T06:08:44.612Z,8.73
2022-12-08T06:10:57.758Z,8.74
2022-12-08T06:13:10.879Z,8.74
2022-12-08T06:15:24.693Z,8.76
2022-12-08T06:17:37.877Z,8.75
2022-12-08T06:19:51.081Z,8.74
2022-12-08T06:22:04.256Z,8.73
2022-12-08T06:24:17.380Z,8.70
2022-12-08T06:26:31.057Z,8.67
2022-12-08T06:28:44.985Z,8.64
2022-12-08T06:30:58.116Z,8.61
2022-12-08T06:33:11.479Z,8.58
2022-12-08T06:35:25.032Z,8.55
2022-12-08T06:37:38.235Z,8.52
2022-12-08T06:39:51.874Z,8.50
2022-12-08T06:42:18.154Z,8.47
2022-12-08T06:44:31.525Z,8.47
2022-12-08T06:46:44.735Z,8.47
2022-12-08T06:48:57.759Z,8.47
2022-12-08T06:51:15.989Z,8.47
2022-12-08T06:53:29.191Z,8.49
2022-12-08T06:56:01.085Z,8.50
2022-12-08T06:58:14.643Z,8.51
2022-12-08T07:00:28.998Z,8.52
2022-12-08T07:02:42.227Z,8.52
2022-12-08T07:04:55.474Z,8.52
2022-12-08T07:07:08.693Z,8.53
2022-12-08T07:09:21.865Z,8.53
2022-12-08T07:11:35.066Z,8.55
2022-12-08T07:13:48.296Z,8.55
2022-12-08T07:16:01.661Z,8.56
2022-12-08T07:18:14.932Z,8.56
2022-12-08T07:20:28.409Z,8.56
2022-12-08T07:22:41.779Z,8.56
2022-12-08T07:24:54.906Z,8.54
2022-12-08T07:27:08.174Z,8.53
2022-12-08T07:29:26.370Z,8.51
2022-12-08T07:31:39.997Z,8.50
2022-12-08T07:33:53.738Z,8.49
2022-12-08T07:36:08.910Z,8.48
2022-12-08T07:38:22.280Z,8.48
2022-12-08T07:40:35.564Z,8.47
2022-12-08T07:42:48.780Z,8.46
2022-12-08T07:45:01.979Z,8.44
2022-12-08T07:47:15.115Z,8.41
2022-12-08T07:49:28.598Z,8.38
2022-12-08T07:51:41.841Z,8.36
2022-12-08T07:53:55.863Z,8.33
2022-12-08T07:56:12.056Z,8.32
2022-12-08T07:58:25.450Z,8.31
2022-12-08T08:00:38.983Z,8.32
2022-12-08T08:02:52.644Z,8.32
2022-12-08T08:05:06.027Z,8.34
2022-12-08T08:07:19.490Z,8.38
2022-12-08T08:09:32.840Z,8.43
2022-12-08T08:11:56.013Z,8.47
2022-12-08T08:14:19.349Z,8.52
2022-12-08T08:16:38.151Z,8.57
2022-12-08T08:18:52.893Z,8.61
2022-12-08T08:21:15.966Z,8.64
2022-12-08T08:23:39.359Z,8.66
2022-12-08T08:25:52.623Z,8.67
2022-12-08T08:28:05.645Z,8.67
2022-12-08T08:30:21.245Z,8.69
2022-12-08T08:32:35.772Z,8.69
2022-12-08T08:34:49.029Z,8.70
2022-12-08T08:37:02.329Z,8.70
2022-12-08T08:39:15.865Z,8.71
2022-12-08T08:41:29.118Z,8.73
2022-12-08T08:43:42.359Z,8.75
2022-12-08T08:45:56.503Z,8.74
2022-12-08T08:48:09.983Z,8.75
2022-12-08T08:50:23.266Z,8.74
2022-12-08T08:52:36.829Z,8.74
2022-12-08T08:54:50.060Z,8.73
2022-12-08T08:57:04.189Z,8.73
2022-12-08T08:59:17.862Z,8.72
2022-12-08T09:01:32.261Z,8.72
2022-12-08T09:03:45.741Z,8.72
2022-12-08T09:05:59.173Z,8.74
2022-12-08T09:08:12.677Z,8.75
2022-12-08T09:10:26.178Z,8.77
2022-12-08T09:12:39.456Z,8.77
2022-12-08T09:14:52.665Z,8.79
2022-12-08T09:17:05.852Z,8.81
2022-12-08T09:19:19.129Z,8.81
2022-12-08T09:21:32.810Z,8.81
2022-12-08T09:23:45.990Z,8.79
2022-12-08T09:25:59.194Z,8.77
2022-12-08T09:28:12.949Z,8.75
2022-12-08T09:30:26.541Z,8.73
2022-12-08T09:32:39.768Z,8.71
2022-12-08T09:34:52.884Z,8.68
2022-12-08T09:37:06.183Z,8.65
2022-12-08T09:39:19.349Z,8.63
2022-12-08T09:41:42.022Z,8.59
2022-12-08T09:44:10.115Z,8.55
2022-12-08T09:46:25.050Z,8.51
2022-12-08T09:48:41.140Z,8.48
2022-12-08T09:50:58.128Z,8.44
2022-12-08T09:53:16.394Z,8.41
2022-12-08T09:55:38.558Z,8.37
2022-12-08T09:57:56.576Z,8.35
2022-12-08T10:00:19.749Z,8.34
2022-12-08T10:02:34.784Z,8.33
2022-12-08T10:04:49.121Z,8.32
2022-12-08T10:07:08.853Z,8.32
2022-12-08T10:09:32.660Z,8.31
2022-12-08T10:11:54.968Z,8.29
2022-12-08T10:14:19.558Z,8.29
2022-12-08T10:16:38.141Z,8.27
2022-12-08T10:18:56.361Z,8.23
2022-12-08T10:21:20.014Z,8.07
2022-12-08T10:23:37.019Z,7.94
2022-12-08T10:25:52.105Z,7.83
2022-12-08T10:28:05.333Z,7.72
2022-12-08T10:30:21.335Z,7.65
2022-12-08T10:32:40.190Z,7.60
2022-12-08T10:35:13.209Z,7.57
2022-12-08T10:37:26.561Z,7.58
2022-12-08T10:39:45.529Z,7.59
2022-12-08T10:42:03.605Z,7.60
2022-12-08T10:44:17.092Z,7.61
2022-12-08T10:46:32.451Z,7.61
2022-12-08T10:48:54.161Z,7.61
2022-12-08T10:51:07.891Z,7.60
2022-12-08T10:53:24.528Z,7.61
2022-12-08T10:55:47.849Z,7.62
2022-12-08T10:58:01.313Z,7.62
2022-12-08T11:00:22.634Z,7.62
2022-12-08T11:02:36.102Z,7.63
2022-12-08T11:04:49.689Z,7.63
2022-12-08T11:07:03.528Z,7.63
2022-12-08T11:09:35.510Z,7.63
2022-12-08T11:11:52.521Z,7.61
2022-12-08T11:14:19.246Z,7.61
2022-12-08T11:16:34.919Z,7.60
2022-12-08T11:18:52.096Z,7.61
2022-12-08T11:21:14.374Z,7.62
2022-12-08T11:23:31.822Z,7.63
2022-12-08T11:25:46.252Z,7.62
2022-12-08T11:28:03.516Z,7.62
2022-12-08T11:30:23.028Z,7.61
2022-12-08T11:32:36.733Z,7.60
2022-12-08T11:34:54.097Z,7.61
2022-12-08T11:37:11.378Z,7.61
2022-12-08T11:39:25.738Z,7.61
2022-12-08T11:41:43.283Z,7.62
2022-12-08T11:44:04.842Z,7.63
2022-12-08T11:46:23.536Z,7.62
2022-12-08T11:48:41.539Z,7.61
2022-12-08T11:50:59.865Z,7.61
2022-12-08T11:53:20.991Z,7.59
2022-12-08T11:55:46.604Z,7.60
2022-12-08T11:58:07.521Z,7.60
2022-12-08T12:00:22.158Z,7.60
2022-12-08T12:02:43.866Z,7.57
2022-12-08T12:05:00.749Z,7.55
2022-12-08T12:07:38.590Z,7.52
2022-12-08T12:10:06.479Z,7.49
2022-12-08T12:12:39.628Z,7.49
2022-12-08T12:15:42.206Z,7.48
2022-12-08T12:18:00.818Z,7.48
2022-12-08T12:20:21.191Z,7.48
2022-12-08T12:22:39.417Z,7.47
2022-12-08T12:24:55.431Z,7.46
2022-12-08T12:27:11.967Z,7.45
2022-12-08T12:29:27.237Z,7.42
2022-12-08T12:31:44.502Z,7.37
2022-12-08T12:34:00.979Z,7.35
2022-12-08T12:36:17.212Z,7.33
2022-12-08T12:38:51.625Z,7.30
2022-12-08T12:41:08.907Z,7.26
2022-12-08T12:43:35.281Z,7.22
2022-12-08T12:45:48.557Z,7.18
2022-12-08T12:48:27.515Z,7.12
2022-12-08T12:50:50.992Z,7.04
2022-12-08T12:53:12.285Z,6.98
2022-12-08T12:55:58.133Z,6.97
2022-12-08T12:58:36.748Z,6.94
2022-12-08T13:00:50.119Z,6.90
2022-12-08T13:03:04.165Z,6.86
2022-12-08T13:05:22.207Z,6.85
2022-12-08T13:07:38.188Z,6.81
2022-12-08T13:09:59.195Z,6.75
2022-12-08T13:12:24.024Z,6.70
2022-12-08T13:14:39.828Z,6.67
2022-12-08T13:17:00.881Z,6.66
2022-12-08T13:19:19.914Z,6.65
2022-12-08T13:21:39.232Z,6.65
2022-12-08T13:23:54.548Z,6.64
2022-12-08T13:26:20.866Z,6.61
2022-12-08T13:28:36.544Z,6.60
2022-12-08T13:30:51.345Z,6.58
2022-12-08T13:33:17.796Z,6.54
2022-12-08T13:35:33.060Z,6.49
2022-12-08T13:37:55.410Z,6.47
2022-12-08T13:40:14.005Z,6.47
2022-12-08T13:42:33.478Z,6.46
2022-12-08T13:45:19.061Z,6.47
2022-12-08T13:47:35.174Z,6.46
2022-12-08T13:51:45.345Z,6.47
2022-12-08T13:57:58.739Z,6.46
2022-12-08T14:00:19.687Z,6.45
2022-12-08T14:02:40.859Z,6.43
2022-12-08T14:07:33.087Z,6.38
2022-12-08T14:09:46.917Z,6.36
2022-12-08T14:12:04.594Z,6.33
2022-12-08T14:14:53.682Z,6.31
2022-12-08T14:17:00.022Z,6.29
2022-12-08T14:19:24.672Z,6.26
2022-12-08T14:21:37.918Z,6.25
2022-12-08T14:23:52.087Z,6.24
2022-12-08T14:26:05.716Z,6.23
2022-12-08T14:28:18.961Z,6.22
2022-12-08T14:30:35.418Z,6.21
2022-12-08T14:32:52.465Z,6.21
2022-12-08T14:35:15.895Z,6.20
2022-12-08T14:37:30.502Z,6.18
2022-12-08T14:39:44.216Z,6.16
2022-12-08T14:42:11.828Z,6.14
2022-12-08T14:44:29.343Z,6.14
2022-12-08T14:46:42.737Z,6.14
2022-12-08T14:48:57.795Z,6.14
2022-12-08T14:51:18.115Z,6.14
2022-12-08T14:53:34.092Z,6.16
2022-12-08T14:55:48.891Z,6.16
2022-12-08T14:58:02.275Z,6.18
2022-12-08T15:00:25.267Z,6.20
2022-12-08T15:02:45.127Z,6.21
2022-12-08T15:05:04.855Z,6.22
2022-12-08T15:07:21.419Z,6.20
2022-12-08T15:09:39.320Z,6.17
2022-12-08T15:12:03.345Z,6.16
2022-12-08T15:14:35.141Z,6.17
2022-12-08T15:16:49.697Z,6.17
2022-12-08T15:19:29.488Z,6.16
2022-12-08T15:21:44.465Z,6.16
2022-12-08T15:23:57.951Z,6.15
2022-12-08T15:26:12.132Z,6.12
2022-12-08T15:28:30.056Z,6.07
2022-12-08T15:30:44.032Z,6.07
2022-12-08T15:32:57.435Z,6.07
2022-12-08T15:35:16.279Z,6.06
2022-12-08T15:37:29.972Z,6.03
2022-12-08T15:39:43.744Z,6.01
2022-12-08T15:41:56.958Z,5.98
2022-12-08T15:44:10.053Z,5.95
2022-12-08T15:46:23.259Z,5.92
2022-12-08T15:48:36.738Z,5.90
2022-12-08T15:50:50.196Z,5.87
2022-12-08T15:53:03.756Z,5.86
2022-12-08T15:55:19.131Z,5.86
2022-12-08T16:00:24.450Z,5.84
2022-12-08T16:03:13.198Z,5.82
2022-12-08T16:07:52.893Z,5.77
2022-12-08T16:10:08.553Z,5.74
2022-12-08T16:17:48.296Z,5.69
2022-12-08T16:20:01.632Z,5.68
2022-12-08T16:24:55.301Z,5.69
2022-12-08T16:28:00.080Z,5.72
2022-12-08T16:30:03.129Z,5.73
2022-12-08T16:32:16.452Z,5.74
2022-12-08T16:34:29.727Z,5.74
2022-12-08T16:36:43.014Z,5.76
2022-12-08T16:38:56.185Z,5.74
2022-12-08T16:41:26.366Z,5.71
2022-12-08T16:43:40.576Z,5.70
2022-12-08T16:45:54.097Z,5.71
2022-12-08T16:48:07.577Z,5.72
2022-12-08T16:50:23.825Z,5.73
2022-12-08T16:52:37.108Z,5.74
2022-12-08T16:54:50.469Z,5.74
2022-12-08T16:57:03.891Z,5.73
2022-12-08T16:59:17.320Z,5.72
2022-12-08T17:01:30.642Z,5.73
2022-12-08T17:04:01.325Z,5.74
2022-12-08T17:06:22.486Z,5.77
2022-12-08T17:08:35.744Z,5.78
2022-12-08T17:11:08.469Z,5.78
2022-12-08T17:13:21.820Z,5.80
2022-12-08T17:15:35.143Z,5.82
2022-12-08T17:17:48.463Z,5.85
2022-12-08T17:20:01.784Z,5.86
2022-12-08T17:22:17.580Z,5.87
2022-12-08T17:24:31.432Z,5.88
2022-12-08T17:26:44.736Z,5.91
2022-12-08T17:29:01.576Z,5.92
2022-12-08T17:31:21.355Z,5.95
2022-12-08T17:33:35.528Z,5.98
2022-12-08T17:35:53.848Z,6.01
2022-12-08T17:38:07.084Z,6.02
2022-12-08T17:40:20.472Z,6.04
2022-12-08T17:42:33.713Z,6.06
2022-12-08T17:44:47.987Z,6.10
2022-12-08T17:47:01.156Z,6.15
2022-12-08T17:49:20.350Z,6.20
2022-12-08T17:51:33.533Z,6.24
2022-12-08T17:53:46.689Z,6.26
2022-12-08T17:56:01.449Z,6.30
2022-12-08T17:58:15.166Z,6.33
2022-12-08T18:00:28.669Z,6.38
2022-12-08T18:02:42.044Z,6.42
2022-12-08T18:04:55.319Z,6.47
2022-12-08T18:07:08.454Z,6.50
2022-12-08T18:09:22.251Z,6.52
2022-12-08T18:11:36.653Z,6.54
2022-12-08T18:13:49.990Z,6.58
2022-12-08T18:16:03.690Z,6.62
2022-12-08T18:18:16.904Z,6.66
2022-12-08T18:20:30.416Z,6.69
2022-12-08T18:22:43.975Z,6.73
2022-12-08T18:24:57.858Z,6.78
2022-12-08T18:27:11.580Z,6.85
2022-12-08T18:29:25.578Z,6.90
2022-12-08T18:31:38.833Z,6.93
2022-12-08T18:33:53.658Z,6.93
2022-12-08T18:36:09.247Z,6.95
2022-12-08T18:38:22.564Z,6.97
2022-12-08T18:40:35.831Z,6.97
2022-12-08T18:42:49.230Z,6.98
2022-12-08T18:45:05.516Z,7.01
2022-12-08T18:47:19.151Z,7.05
2022-12-08T18:49:32.461Z,7.09
2022-12-08T18:51:46.206Z,7.14
2022-12-08T18:54:01.597Z,7.17
2022-12-08T18:56:23.407Z,7.19
2022-12-08T18:58:59.878Z,7.24
2022-12-08T19:01:19.517Z,7.32
2022-12-08T19:03:32.769Z,7.38
2022-12-08T19:05:46.479Z,7.43
2022-12-08T19:07:59.751Z,7.47
2022-12-08T19:10:15.669Z,7.51
2022-12-08T19:12:29.013Z,7.58
2022-12-08T19:14:42.269Z,7.64
2022-12-08T19:16:55.541Z,7.67
2022-12-08T19:19:09.325Z,7.73
2022-12-08T19:21:22.780Z,7.83
2022-12-08T19:23:36.349Z,7.90
2022-12-08T19:25:49.727Z,7.95
2022-12-08T19:28:02.933Z,8.03
2022-12-08T19:30:17.886Z,8.12
2022-12-08T19:32:32.103Z,8.19
2022-12-08T19:34:45.343Z,8.25
2022-12-08T19:36:58.548Z,8.32
2022-12-08T19:39:28.576Z,8.38
2022-12-08T19:41:58.691Z,8.43
2022-12-08T19:44:34.364Z,8.44
2022-12-08T19:46:47.727Z,8.48
2022-12-08T19:49:01.170Z,8.51
2022-12-08T19:51:14.974Z,8.51
2022-12-08T19:53:28.680Z,8.50
2022-12-08T19:55:42.431Z,8.46
2022-12-08T19:57:55.953Z,8.43
2022-12-08T20:00:14.707Z,8.43
2022-12-08T20:02:28.145Z,8.46
2022-12-08T20:04:41.479Z,8.49
2022-12-08T20:06:55.661Z,8.50
2022-12-08T20:09:09.276Z,8.51
2022-12-08T20:11:22.480Z,8.53
2022-12-08T20:13:46.694Z,8.54
2022-12-08T20:16:00.270Z,8.56
2022-12-08T20:18:13.989Z,8.57
2022-12-08T20:20:27.266Z,8.58
2022-12-08T20:22:41.083Z,8.58
2022-12-08T20:25:00.691Z,8.56
2022-12-08T20:27:14.437Z,8.54
2022-12-08T20:29:27.763Z,8.54
2022-12-08T20:31:41.677Z,8.53
2022-12-08T20:33:55.099Z,8.48
2022-12-08T20:36:10.480Z,8.44
2022-12-08T20:38:23.723Z,8.43
2022-12-08T20:40:37.038Z,8.40
2022-12-08T20:42:50.526Z,8.40
2022-12-08T20:45:04.005Z,8.40
2022-12-08T20:47:18.005Z,8.40
2022-12-08T20:49:34.511Z,8.36
2022-12-08T20:51:48.765Z,8.33
2022-12-08T20:54:02.845Z,8.22
2022-12-08T20:56:20.946Z,8.11
2022-12-08T20:58:34.480Z,8.01
2022-12-08T21:00:47.838Z,7.90
2022-12-08T21:03:01.889Z,7.72
2022-12-08T21:05:16.250Z,7.56
2022-12-08T21:07:29.916Z,7.39
2022-12-08T21:09:43.632Z,7.27
2022-12-08T21:11:57.266Z,7.19
2022-12-08T21:14:10.599Z,7.11
2022-12-08T21:16:25.375Z,7.03
2022-12-08T21:18:39.931Z,6.97
2022-12-08T21:20:54.374Z,6.95
2022-12-08T21:23:07.754Z,6.94
2022-12-08T21:25:23.191Z,6.96
2022-12-08T21:27:36.644Z,6.99
2022-12-08T21:29:50.055Z,7.03
2022-12-08T21:32:04.842Z,7.07
2022-12-08T21:34:18.257Z,7.13
2022-12-08T21:36:31.747Z,7.17
2022-12-08T21:38:45.728Z,7.22
2022-12-08T21:40:59.321Z,7.23
2022-12-08T21:43:13.052Z,7.22
2022-12-08T21:45:27.367Z,7.21
2022-12-08T21:47:40.802Z,7.20
2022-12-08T21:49:54.185Z,7.17
2022-12-08T21:52:07.589Z,7.13
2022-12-08T21:54:21.167Z,7.13
2022-12-08T21:56:34.605Z,7.12
2022-12-08T21:58:48.267Z,7.12
2022-12-08T22:01:01.701Z,7.12
2022-12-08T22:03:18.933Z,7.13
2022-12-08T22:05:32.479Z,7.14
2022-12-08T22:07:48.615Z,7.15
2022-12-08T22:10:02.488Z,7.15
2022-12-08T22:12:17.639Z,7.13
2022-12-08T22:14:31.124Z,7.13
2022-12-08T22:16:44.808Z,7.13
2022-12-08T22:18:58.239Z,7.13
2022-12-08T22:21:17.629Z,7.14
2022-12-08T22:23:31.541Z,7.12
2022-12-08T22:25:44.825Z,7.09
2022-12-08T22:27:57.883Z,7.07
2022-12-08T22:30:13.948Z,7.05
2022-12-08T22:32:27.304Z,7.04
2022-12-08T22:34:40.834Z,7.05
2022-12-08T22:36:56.751Z,7.05
2022-12-08T22:39:10.654Z,7.02
2022-12-08T22:41:24.932Z,7.01
2022-12-08T22:43:38.426Z,7.00
2022-12-08T22:45:51.935Z,7.02
2022-12-08T22:48:05.188Z,7.03
2022-12-08T22:50:18.702Z,7.03
2022-12-08T22:52:32.142Z,7.04
2022-12-08T22:54:45.377Z,7.04
2022-12-08T22:56:58.598Z,7.05
2022-12-08T22:59:12.209Z,7.06
2022-12-08T23:01:31.958Z,7.09
2022-12-08T23:03:45.555Z,7.09
2022-12-08T23:05:59.312Z,7.10
2022-12-08T23:08:16.728Z,7.10
2022-12-08T23:10:30.279Z,7.09
2022-12-08T23:12:43.520Z,7.11
2022-12-08T23:14:56.684Z,7.10
2022-12-08T23:17:10.159Z,7.10
2022-12-08T23:19:23.527Z,7.12
2022-12-08T23:21:36.772Z,7.15
2022-12-08T23:23:50.492Z,7.18
2022-12-08T23:26:04.044Z,7.21
2022-12-08T23:28:17.630Z,7.26
2022-12-08T23:30:30.971Z,7.31
2022-12-08T23:32:44.216Z,7.36
2022-12-08T23:34:57.465Z,7.38
2022-12-08T23:37:10.743Z,7.40
2022-12-08T23:39:26.090Z,7.40
2022-12-08T23:41:39.348Z,7.42
2022-12-08T23:43:54.246Z,7.41
2022-12-08T23:46:07.796Z,7.43
2022-12-08T23:48:21.148Z,7.44
2022-12-08T23:50:34.471Z,7.44
2022-12-08T23:52:47.764Z,7.41
2022-12-08T23:55:01.400Z,7.39
2022-12-08T23:57:14.755Z,7.37
2022-12-08T23:59:28.077Z,7.36
